Cape Lisburne LRRS Airport Cape Lisburne US
ICAO: PALU
IATA:
Category: Medium
Scheduled Services:

Elevation: 16 ft
TransAlt. 18000 ft.

Airport Communications:
ANCHORAGE CNTR:119.65
KOTZEBUE RDO:122.3
CTAF/UNICOM:126.2

PALU Zoom In..

Runways:

(A) RW 08 length 4805 ft width 135 ft
---- / hdg 84

(B) RW 26 length 4805 ft width 135 ft
---- / hdg 264

Location; PALU
Day. 22 / Time. 23.55 Zulu
* Altimeter: 30.34
* Temperature: -22° c. 7.6°f.
* Wind from: 270° Speed 05 kn.
Dewpoint: -26° c.
Visibility: 10 Statute Miles.
Clouds: Scattered 3200 ft.
Clouds: Broken 1000 ft.
Conditions: Light Snow.

PALU 222355Z AUTO 27005KT 10SM -SN SCT032 BKN100 M22/M26 A3034 RMK AO2 SNB2155 SLP273 P0000 60000 T12171257 11209 21217 54000


Wind From 270°
Speed 05 kn.

YouTube Music Video
 
jpsmedia.com for Web Design  worldairports.se 2018   terms of use